createdAt,value
2023-03-02T00:00:48.376Z,46.1
2023-03-02T00:01:49.457Z,46.3
2023-03-02T00:02:50.512Z,46.3
2023-03-02T00:03:51.595Z,46.1
2023-03-02T00:04:52.522Z,46.1
2023-03-02T00:05:53.479Z,46.1
2023-03-02T00:06:54.498Z,46.1
2023-03-02T00:07:55.487Z,46.1
2023-03-02T00:08:56.519Z,46
2023-03-02T00:09:57.559Z,46
2023-03-02T00:10:58.619Z,46
2023-03-02T00:11:59.478Z,46.2
2023-03-02T00:13:00.596Z,46.3
2023-03-02T00:14:01.484Z,46.4
2023-03-02T00:15:02.504Z,46.4
2023-03-02T00:16:03.539Z,46.4
2023-03-02T00:17:04.648Z,46.1
2023-03-02T00:18:05.604Z,46.1
2023-03-02T00:19:06.580Z,46.2
2023-03-02T00:20:07.626Z,46.4
2023-03-02T00:21:08.582Z,46.5
2023-03-02T00:22:10.797Z,46.7
2023-03-02T00:23:10.543Z,46.9
2023-03-02T00:24:11.499Z,46.9
2023-03-02T00:25:12.470Z,46.9
2023-03-02T00:26:13.502Z,47.1
2023-03-02T00:27:14.565Z,47.1
2023-03-02T00:28:15.521Z,47.2
2023-03-02T00:29:16.544Z,47.2
2023-03-02T00:30:17.578Z,47
2023-03-02T00:31:18.623Z,46.8
2023-03-02T00:32:19.510Z,46.6
2023-03-02T00:33:20.585Z,46.3
2023-03-02T00:34:21.738Z,46.1
2023-03-02T00:35:22.557Z,46
2023-03-02T00:36:23.539Z,45.9
2023-03-02T00:37:24.585Z,45.8
2023-03-02T00:38:25.579Z,46
2023-03-02T00:39:26.497Z,46
2023-03-02T00:40:27.497Z,46
2023-03-02T00:41:28.455Z,46
2023-03-02T00:42:29.496Z,46.1
2023-03-02T00:43:30.500Z,46.3
2023-03-02T00:44:31.516Z,46.4
2023-03-02T00:45:32.478Z,46.5
2023-03-02T00:46:33.850Z,46.5
2023-03-02T00:47:34.504Z,46.4
2023-03-02T00:48:35.501Z,46.3
2023-03-02T00:49:36.501Z,46.3
2023-03-02T00:50:37.538Z,46.4
2023-03-02T00:51:38.515Z,46.8
2023-03-02T00:52:39.510Z,47
2023-03-02T00:53:40.557Z,47.1
2023-03-02T00:54:41.538Z,47.4
2023-03-02T00:55:42.496Z,47.8
2023-03-02T00:56:43.535Z,48.3
2023-03-02T00:57:44.536Z,48.5
2023-03-02T00:58:45.520Z,48.4
2023-03-02T00:59:46.524Z,47.8
2023-03-02T01:00:47.584Z,47.5
2023-03-02T01:01:48.509Z,47.9
2023-03-02T01:02:49.672Z,48.1
2023-03-02T01:03:50.539Z,48.1
2023-03-02T01:04:51.518Z,48
2023-03-02T01:05:52.503Z,48
2023-03-02T01:06:53.502Z,48
2023-03-02T01:07:54.450Z,48
2023-03-02T01:08:55.519Z,48
2023-03-02T01:09:56.481Z,48.1
2023-03-02T01:10:57.503Z,47.8
2023-03-02T01:11:58.532Z,47.4
2023-03-02T01:12:59.484Z,47.1
2023-03-02T01:14:00.582Z,46.8
2023-03-02T01:15:01.561Z,46
2023-03-02T01:16:02.585Z,46.3
2023-03-02T01:17:03.523Z,46.3
2023-03-02T01:18:04.468Z,46.9
2023-03-02T01:19:05.559Z,47.3
2023-03-02T01:20:06.482Z,47.5
2023-03-02T01:21:07.549Z,47.7
2023-03-02T01:22:08.599Z,47.7
2023-03-02T01:23:09.504Z,47.6
2023-03-02T01:24:10.543Z,47.4
2023-03-02T01:25:11.643Z,47.4
2023-03-02T01:26:12.602Z,47.7
2023-03-02T01:27:13.516Z,47.9
2023-03-02T01:28:14.523Z,48
2023-03-02T01:29:15.534Z,48
2023-03-02T01:30:16.606Z,48
2023-03-02T01:31:17.485Z,47.9
2023-03-02T01:32:18.662Z,47.7
2023-03-02T01:33:19.548Z,47.5
2023-03-02T01:34:20.548Z,47
2023-03-02T01:35:21.560Z,47.1
2023-03-02T01:36:22.584Z,47.1
2023-03-02T01:37:23.531Z,47.2
2023-03-02T01:38:24.675Z,47.4
2023-03-02T01:39:25.395Z,47.5
2023-03-02T01:40:26.548Z,47.4
2023-03-02T01:41:27.531Z,47.6
2023-03-02T01:42:28.485Z,47.6
2023-03-02T01:43:29.609Z,47.5
2023-03-02T01:44:30.610Z,47.7
2023-03-02T01:45:31.732Z,47.8
2023-03-02T01:46:32.892Z,47.7
2023-03-02T01:47:33.550Z,47.8
2023-03-02T01:48:34.560Z,47.7
2023-03-02T01:49:35.525Z,47.6
2023-03-02T01:50:36.500Z,47.5
2023-03-02T01:51:37.659Z,47.5
2023-03-02T01:52:38.529Z,47.4
2023-03-02T01:53:39.539Z,47.5
2023-03-02T01:54:40.566Z,47.5
2023-03-02T01:55:41.524Z,47.6
2023-03-02T01:56:42.602Z,47.6
2023-03-02T01:57:43.849Z,47.6
2023-03-02T01:58:44.522Z,47.6
2023-03-02T01:59:45.549Z,46.9
2023-03-02T02:00:46.768Z,47.4
2023-03-02T02:01:47.682Z,47.5
2023-03-02T02:02:48.610Z,47.5
2023-03-02T02:06:57.681Z,47.4
2023-03-02T02:07:58.579Z,47.5
2023-03-02T02:08:59.521Z,47.7
2023-03-02T02:10:00.557Z,47.6
2023-03-02T02:11:01.551Z,47.5
2023-03-02T02:12:02.571Z,47.2
2023-03-02T02:13:03.537Z,47
2023-03-02T02:14:04.558Z,46.8
2023-03-02T02:15:05.514Z,46.5
2023-03-02T02:16:06.727Z,46.4
2023-03-02T02:17:07.640Z,46.3
2023-03-02T02:18:08.564Z,46.3
2023-03-02T02:19:09.565Z,46.4
2023-03-02T02:20:10.577Z,46.4
2023-03-02T02:21:11.605Z,46.2
2023-03-02T02:22:12.592Z,46.5
2023-03-02T02:23:13.515Z,46.6
2023-03-02T02:24:14.507Z,47
2023-03-02T02:25:15.574Z,47.2
2023-03-02T02:26:16.606Z,47.5
2023-03-02T02:27:17.560Z,47.6
2023-03-02T02:28:18.558Z,47.6
2023-03-02T02:29:19.601Z,47.4
2023-03-02T02:30:20.628Z,47.3
2023-03-02T02:31:21.588Z,47.2
2023-03-02T02:32:22.626Z,47.2
2023-03-02T02:33:23.561Z,47.1
2023-03-02T02:34:24.609Z,46.9
2023-03-02T02:35:25.588Z,46.9
2023-03-02T02:36:26.580Z,46.8
2023-03-02T02:37:27.643Z,46.9
2023-03-02T02:38:28.492Z,46.8
2023-03-02T02:39:29.640Z,46.9
2023-03-02T02:40:30.495Z,47
2023-03-02T02:41:31.540Z,47.1
2023-03-02T02:42:32.517Z,47.2
2023-03-02T02:43:33.556Z,46.9
2023-03-02T02:44:34.638Z,47.3
2023-03-02T02:45:35.703Z,47.4
2023-03-02T02:46:36.598Z,47.2
2023-03-02T02:47:37.517Z,47.1
2023-03-02T02:48:38.517Z,47
2023-03-02T02:49:39.540Z,47.1
2023-03-02T02:50:40.618Z,46.9
2023-03-02T02:51:41.604Z,46.9
2023-03-02T02:52:42.567Z,47.2
2023-03-02T02:53:43.558Z,47.3
2023-03-02T02:54:44.538Z,47.3
2023-03-02T02:55:45.666Z,47.2
2023-03-02T02:56:46.559Z,47.4
2023-03-02T02:57:47.578Z,47.6
2023-03-02T02:58:48.580Z,47.7
2023-03-02T02:59:49.492Z,47.4
2023-03-02T03:00:50.770Z,47.3
2023-03-02T03:01:51.639Z,47.4
2023-03-02T03:02:52.618Z,47.3
2023-03-02T03:03:53.748Z,47.2
2023-03-02T03:04:54.718Z,47.2
2023-03-02T03:05:55.678Z,47.2
2023-03-02T03:06:56.752Z,47
2023-03-02T03:08:00.305Z,46.7
2023-03-02T03:09:01.779Z,46.6
2023-03-02T03:10:02.664Z,46.2
2023-03-02T03:11:03.561Z,46
2023-03-02T03:12:04.638Z,45.9
2023-03-02T03:13:05.539Z,45.7
2023-03-02T03:14:06.598Z,45.9
2023-03-02T03:15:07.591Z,46.3
2023-03-02T03:16:08.640Z,46.7
2023-03-02T03:17:09.675Z,46.6
2023-03-02T03:18:10.607Z,46.8
2023-03-02T03:19:11.565Z,46.8
2023-03-02T03:20:12.635Z,46.6
2023-03-02T03:21:13.598Z,46.3
2023-03-02T03:22:14.638Z,46.6
2023-03-02T03:23:15.626Z,46.5
2023-03-02T03:24:16.572Z,46.1
2023-03-02T03:25:17.640Z,46.2
2023-03-02T03:26:18.531Z,46.2
2023-03-02T03:27:19.613Z,46.3
2023-03-02T03:28:20.555Z,46.3
2023-03-02T03:29:21.631Z,45.1
2023-03-02T03:30:22.557Z,45.9
2023-03-02T03:31:23.549Z,46.3
2023-03-02T03:32:24.633Z,46.2
2023-03-02T03:33:25.590Z,46.2
2023-03-02T03:34:26.541Z,46.6
2023-03-02T03:35:27.607Z,46.6
2023-03-02T03:36:28.610Z,47
2023-03-02T03:37:29.832Z,47.3
2023-03-02T03:38:30.700Z,47.5
2023-03-02T03:39:31.571Z,47.3
2023-03-02T03:40:32.569Z,47.3
2023-03-02T03:41:33.587Z,46.9
2023-03-02T03:42:34.600Z,46.6
2023-03-02T03:43:35.530Z,46.4
2023-03-02T03:44:36.627Z,45.9
2023-03-02T03:45:37.527Z,46.1
2023-03-02T03:46:38.648Z,46
2023-03-02T03:47:39.610Z,46.2
2023-03-02T03:48:40.578Z,46.1
2023-03-02T03:49:41.574Z,45.9
2023-03-02T03:50:42.586Z,45.9
2023-03-02T03:51:43.570Z,45.8
2023-03-02T03:52:44.636Z,45.9
2023-03-02T03:53:45.649Z,45.7
2023-03-02T03:54:46.649Z,45.9
2023-03-02T03:55:47.614Z,46.5
2023-03-02T03:56:48.631Z,46.5
2023-03-02T03:57:49.591Z,46.5
2023-03-02T03:58:50.708Z,46.5
2023-03-02T03:59:51.607Z,46.8
2023-03-02T04:00:52.649Z,47
2023-03-02T04:01:53.625Z,47
2023-03-02T04:02:54.637Z,46.9
2023-03-02T04:03:55.625Z,46.6
2023-03-02T04:04:56.608Z,46.5
2023-03-02T04:05:57.639Z,46.6
2023-03-02T04:06:58.567Z,46.5
2023-03-02T04:07:59.606Z,46.5
2023-03-02T04:09:00.614Z,46.7
2023-03-02T04:10:01.612Z,46.7
2023-03-02T04:11:02.604Z,46.8
2023-03-02T04:12:03.629Z,47
2023-03-02T04:13:04.570Z,47.4
2023-03-02T04:14:05.594Z,47.4
2023-03-02T04:15:06.623Z,47.4
2023-03-02T04:16:07.739Z,47.5
2023-03-02T04:17:08.589Z,47.5
2023-03-02T04:18:09.585Z,47.4
2023-03-02T04:19:10.602Z,47.5
2023-03-02T04:20:11.664Z,47.6
2023-03-02T04:21:12.623Z,47.3
2023-03-02T04:22:13.564Z,47.7
2023-03-02T04:23:14.630Z,48.1
2023-03-02T04:24:15.625Z,48.5
2023-03-02T04:25:16.602Z,48.6
2023-03-02T04:26:17.711Z,48.7
2023-03-02T04:27:18.609Z,48.7
2023-03-02T04:28:19.594Z,48.5
2023-03-02T04:29:20.578Z,48.6
2023-03-02T04:30:21.548Z,48.5
2023-03-02T04:31:22.658Z,48.3
2023-03-02T04:32:23.705Z,48.1
2023-03-02T04:33:24.592Z,48
2023-03-02T04:34:25.691Z,47.8
2023-03-02T04:35:26.690Z,48
2023-03-02T04:36:27.711Z,48.1
2023-03-02T04:37:28.553Z,48.5
2023-03-02T04:38:29.634Z,48.6
2023-03-02T04:39:30.778Z,48.5
2023-03-02T04:40:31.593Z,48.7
2023-03-02T04:41:32.604Z,49.5
2023-03-02T04:42:33.597Z,49.9
2023-03-02T04:43:34.594Z,49.7
2023-03-02T04:44:35.616Z,49.5
2023-03-02T04:45:36.577Z,50
2023-03-02T04:46:37.672Z,50
2023-03-02T04:47:38.591Z,50
2023-03-02T04:48:39.603Z,49.7
2023-03-02T04:49:40.602Z,49.2
2023-03-02T04:50:41.697Z,48.7
2023-03-02T04:51:42.646Z,48.7
2023-03-02T04:52:43.659Z,48.7
2023-03-02T04:53:44.560Z,49
2023-03-02T04:54:45.641Z,48.8
2023-03-02T04:55:46.661Z,48.9
2023-03-02T04:56:47.651Z,48.9
2023-03-02T04:57:48.699Z,48.9
2023-03-02T04:58:49.559Z,49
2023-03-02T04:59:50.602Z,48.9
2023-03-02T05:00:51.588Z,49.1
2023-03-02T05:01:52.633Z,49
2023-03-02T05:02:53.739Z,48.9
2023-03-02T05:03:54.690Z,48.9
2023-03-02T05:04:55.716Z,49
2023-03-02T05:05:56.678Z,48.6
2023-03-02T05:06:57.609Z,48.3
2023-03-02T05:07:58.645Z,48
2023-03-02T05:08:59.617Z,47.8
2023-03-02T05:10:00.632Z,47.9
2023-03-02T05:11:01.658Z,48.1
2023-03-02T05:12:02.629Z,47.7
2023-03-02T05:13:03.740Z,48
2023-03-02T05:14:04.596Z,47.9
2023-03-02T05:15:05.616Z,47.4
2023-03-02T05:16:06.691Z,47.4
2023-03-02T05:17:07.658Z,47.2
2023-03-02T05:18:08.633Z,47.3
2023-03-02T05:19:09.667Z,47.4
2023-03-02T05:20:10.619Z,47.3
2023-03-02T05:21:11.678Z,47.4
2023-03-02T05:22:12.819Z,47.6
2023-03-02T05:23:13.744Z,47.3
2023-03-02T05:24:14.648Z,47.1
2023-03-02T05:25:15.702Z,47.1
2023-03-02T05:26:16.640Z,46.9
2023-03-02T05:27:17.728Z,47.3
2023-03-02T05:28:18.682Z,47.3
2023-03-02T05:29:19.726Z,47.3
2023-03-02T05:30:20.664Z,47.4
2023-03-02T05:31:21.722Z,47.3
2023-03-02T05:32:22.649Z,47.5
2023-03-02T05:33:23.658Z,47.4
2023-03-02T05:34:24.658Z,47.4
2023-03-02T05:35:25.711Z,47.4
2023-03-02T05:36:26.631Z,47.6
2023-03-02T05:37:27.699Z,47.7
2023-03-02T05:38:28.538Z,47.8
2023-03-02T05:39:29.819Z,47.7
2023-03-02T05:40:30.844Z,47.7
2023-03-02T05:41:31.639Z,48.1
2023-03-02T05:42:32.771Z,49
2023-03-02T05:43:33.657Z,49.5
2023-03-02T05:44:34.578Z,49.9
2023-03-02T05:45:35.607Z,49.9
2023-03-02T05:46:36.902Z,49.8
2023-03-02T05:47:37.740Z,49.8
2023-03-02T05:48:38.732Z,49.6
2023-03-02T05:49:39.636Z,49.1
2023-03-02T05:50:40.599Z,49
2023-03-02T05:51:41.750Z,49
2023-03-02T05:52:42.684Z,49.1
2023-03-02T05:53:43.824Z,49.2
2023-03-02T05:54:44.677Z,49.4
2023-03-02T05:55:45.760Z,49.7
2023-03-02T05:56:49.338Z,49.7
2023-03-02T05:57:48.644Z,49.6
2023-03-02T05:58:49.755Z,49.4
2023-03-02T05:59:50.597Z,49.3
2023-03-02T06:00:51.499Z,49.2
2023-03-02T06:01:52.667Z,49.2
2023-03-02T06:02:53.781Z,49.3
2023-03-02T06:03:54.737Z,49.2
2023-03-02T06:04:55.635Z,49.2
2023-03-02T06:05:56.702Z,49
2023-03-02T06:06:57.818Z,48.9
2023-03-02T06:07:58.835Z,48.7
2023-03-02T06:09:00.150Z,48.6
2023-03-02T06:10:01.645Z,48.6
2023-03-02T06:11:02.707Z,48.9
2023-03-02T06:12:04.084Z,48.7
2023-03-02T06:13:05.578Z,48.6
2023-03-02T06:14:06.648Z,48.1
2023-03-02T06:15:47.582Z,48.3
2023-03-02T06:16:49.215Z,48.4
2023-03-02T06:17:51.476Z,48.6
2023-03-02T06:18:55.707Z,48.7
2023-03-02T06:19:57.753Z,48.9
2023-03-02T06:20:58.697Z,48.9
2023-03-02T06:22:01.114Z,48.7
2023-03-02T06:23:02.617Z,48.4
2023-03-02T06:24:03.607Z,48.3
2023-03-02T06:25:04.765Z,48.2
2023-03-02T06:26:06.655Z,47.9
2023-03-02T06:27:07.647Z,48.2
2023-03-02T06:28:09.328Z,48.1
2023-03-02T06:29:10.602Z,48.4
2023-03-02T06:30:11.626Z,48.3
2023-03-02T06:31:12.568Z,48.1
2023-03-02T06:32:13.753Z,47.9
2023-03-02T06:33:14.982Z,47.6
2023-03-02T06:34:15.829Z,47.5
2023-03-02T06:35:16.792Z,47.4
2023-03-02T06:36:20.447Z,47.3
2023-03-02T06:37:22.659Z,47.4
2023-03-02T06:38:23.580Z,47.5
2023-03-02T06:39:24.702Z,47.7
2023-03-02T06:40:25.590Z,47.8
2023-03-02T06:41:26.665Z,48
2023-03-02T06:42:27.631Z,48.2
2023-03-02T06:43:28.650Z,48.3
2023-03-02T06:44:29.606Z,48.2
2023-03-02T06:45:30.648Z,48.3
2023-03-02T06:46:32.162Z,48.1
2023-03-02T06:47:32.581Z,48
2023-03-02T06:48:33.761Z,48.1
2023-03-02T06:49:34.705Z,48.3
2023-03-02T06:50:35.583Z,48.4
2023-03-02T06:51:36.656Z,48.5
2023-03-02T06:52:37.668Z,48.6
2023-03-02T06:53:38.581Z,48.6
2023-03-02T06:54:39.627Z,49
2023-03-02T06:55:40.667Z,49.5
2023-03-02T06:56:41.632Z,49.9
2023-03-02T06:57:42.629Z,50.1
2023-03-02T06:58:43.603Z,49.9
2023-03-02T06:59:44.690Z,50.3
2023-03-02T07:00:45.577Z,50.4
2023-03-02T07:01:46.720Z,50.5
2023-03-02T07:02:47.688Z,50.4
2023-03-02T07:03:48.714Z,50.2
2023-03-02T07:04:49.590Z,50.2
2023-03-02T07:05:50.668Z,49.9
2023-03-02T07:06:51.742Z,49.7
2023-03-02T07:07:52.657Z,49.5
2023-03-02T07:08:53.697Z,49.4
2023-03-02T07:09:54.641Z,49.4
2023-03-02T07:10:55.580Z,49.3
2023-03-02T07:11:56.689Z,49.3
2023-03-02T07:12:57.637Z,49.3
2023-03-02T07:13:58.694Z,49.4
2023-03-02T07:14:59.678Z,49.5
2023-03-02T07:16:00.644Z,49.2
2023-03-02T07:17:01.701Z,49
2023-03-02T07:18:02.672Z,48.5
2023-03-02T07:19:03.633Z,48.2
2023-03-02T07:20:04.764Z,47.8
2023-03-02T07:21:05.741Z,47.5
2023-03-02T07:22:06.653Z,46.6
2023-03-02T07:23:07.698Z,47
2023-03-02T07:24:08.656Z,47.1
2023-03-02T07:25:09.849Z,46.5
2023-03-02T07:26:10.696Z,45.9
2023-03-02T07:27:11.783Z,46.1
2023-03-02T07:28:12.718Z,46.2
2023-03-02T07:29:13.733Z,46.4
2023-03-02T07:30:14.732Z,45.8
2023-03-02T07:31:15.775Z,45.5
2023-03-02T07:32:16.757Z,45.5
2023-03-02T07:33:17.651Z,45.4
2023-03-02T07:34:18.692Z,44.9
2023-03-02T07:35:19.836Z,44.8
2023-03-02T07:36:20.695Z,44.9
2023-03-02T07:37:21.762Z,45.2
2023-03-02T07:38:22.652Z,44.7
2023-03-02T07:39:23.670Z,44.6
2023-03-02T07:40:24.651Z,44.8
2023-03-02T07:41:25.642Z,44.6
2023-03-02T07:42:26.742Z,44.4
2023-03-02T07:43:27.714Z,43.9
2023-03-02T07:44:28.707Z,43.9
2023-03-02T07:45:29.633Z,44.1
2023-03-02T07:46:30.888Z,44.5
2023-03-02T07:47:31.963Z,45.1
2023-03-02T07:48:32.708Z,45.1
2023-03-02T07:49:33.699Z,44.2
2023-03-02T07:50:34.697Z,43.2
2023-03-02T07:51:35.726Z,42.3
2023-03-02T07:52:36.675Z,41.3
2023-03-02T07:53:37.774Z,40.6
2023-03-02T07:54:38.701Z,39.8
2023-03-02T07:55:39.655Z,39.6
2023-03-02T07:56:40.687Z,39.1
2023-03-02T07:57:41.929Z,38.4
2023-03-02T07:58:42.722Z,37.9
2023-03-02T07:59:43.719Z,37.9
2023-03-02T08:00:44.735Z,38.4
2023-03-02T08:01:45.747Z,38.3
2023-03-02T08:02:46.779Z,38.3
2023-03-02T08:03:47.738Z,37.8
2023-03-02T08:04:48.734Z,37.5
2023-03-02T08:05:49.632Z,37.7
2023-03-02T08:06:50.757Z,37.6
2023-03-02T08:07:51.793Z,37.3
2023-03-02T08:08:52.755Z,37
2023-03-02T08:09:53.755Z,37.2
2023-03-02T08:10:54.673Z,37.5
2023-03-02T08:11:55.698Z,37.7
2023-03-02T08:12:56.666Z,37.7
2023-03-02T08:13:57.681Z,37.6
2023-03-02T08:14:58.717Z,37.1
2023-03-02T08:15:59.854Z,36.9
2023-03-02T08:17:00.742Z,36.9
2023-03-02T08:18:01.689Z,36.8
2023-03-02T08:19:02.737Z,37.1
2023-03-02T08:20:03.720Z,37.4
2023-03-02T08:21:04.926Z,36.6
2023-03-02T08:22:05.659Z,36.3
2023-03-02T08:23:06.757Z,36.6
2023-03-02T08:24:07.840Z,36.8
2023-03-02T08:25:08.803Z,37
2023-03-02T08:26:12.482Z,36.7
2023-03-02T08:27:10.718Z,36.7
2023-03-02T08:28:11.792Z,37.2
2023-03-02T08:29:12.706Z,37.5
2023-03-02T08:30:13.742Z,37.6
2023-03-02T08:31:14.659Z,37.8
2023-03-02T08:32:15.779Z,37.9
2023-03-02T08:33:16.798Z,37.8
2023-03-02T08:34:17.735Z,37.8
2023-03-02T08:35:18.972Z,37.5
2023-03-02T08:36:19.704Z,37.2
2023-03-02T08:37:20.880Z,37.4
2023-03-02T08:38:21.826Z,37.6
2023-03-02T08:39:22.999Z,37.6
2023-03-02T08:40:23.689Z,37.8
2023-03-02T08:41:24.687Z,37.7
2023-03-02T08:42:25.807Z,37.6
2023-03-02T08:43:26.757Z,37
2023-03-02T08:44:27.699Z,36.9
2023-03-02T08:45:28.744Z,36.4
2023-03-02T08:46:29.765Z,36
2023-03-02T08:47:30.656Z,36
2023-03-02T08:48:32.254Z,36.6
2023-03-02T08:49:33.828Z,36.2
2023-03-02T08:50:34.734Z,36.4
2023-03-02T08:51:35.925Z,35.8
2023-03-02T08:52:36.715Z,35.6
2023-03-02T08:53:37.797Z,35.2
2023-03-02T08:54:38.777Z,34.7
2023-03-02T08:55:39.735Z,34.9
2023-03-02T08:56:40.692Z,35.2
2023-03-02T08:57:41.773Z,35.5
2023-03-02T08:58:42.717Z,36
2023-03-02T08:59:43.699Z,35.8
2023-03-02T09:00:44.778Z,35.6
2023-03-02T09:01:45.815Z,34.5
2023-03-02T09:02:46.774Z,33.9
2023-03-02T09:03:47.776Z,34.4
2023-03-02T09:04:48.908Z,34.6
2023-03-02T09:05:49.824Z,34.5
2023-03-02T09:06:50.751Z,34.5
2023-03-02T09:07:51.678Z,34.8
2023-03-02T09:08:52.673Z,34.8
2023-03-02T09:09:53.660Z,35.3
2023-03-02T09:10:54.786Z,35.2
2023-03-02T09:11:55.917Z,34.6
2023-03-02T09:12:56.693Z,34.2
2023-03-02T09:13:57.705Z,34.4
2023-03-02T09:15:01.758Z,33.7
2023-03-02T09:16:02.769Z,33.8
2023-03-02T09:17:03.671Z,33.5
2023-03-02T09:18:04.761Z,33.8
2023-03-02T09:19:05.723Z,33.7
2023-03-02T09:20:06.796Z,33.3
2023-03-02T09:21:07.773Z,33.5
2023-03-02T09:22:08.716Z,33.3
2023-03-02T09:23:09.657Z,33.1
2023-03-02T09:24:10.813Z,32.4
2023-03-02T09:25:11.717Z,31.1
2023-03-02T09:26:12.764Z,30.2
2023-03-02T09:27:13.715Z,30.1
2023-03-02T09:28:14.735Z,30.6
2023-03-02T09:29:15.906Z,30
2023-03-02T09:30:16.764Z,29.2
2023-03-02T09:31:17.816Z,28.9
2023-03-02T09:32:18.875Z,28.5
2023-03-02T09:33:19.715Z,28
2023-03-02T09:34:20.718Z,28.3
2023-03-02T09:35:21.771Z,28.1
2023-03-02T09:36:22.780Z,27.9
2023-03-02T09:37:23.723Z,27.6
2023-03-02T09:38:24.865Z,27.6
2023-03-02T09:39:25.819Z,27.6
2023-03-02T09:40:26.738Z,28
2023-03-02T09:41:27.793Z,27.9
2023-03-02T09:42:38.276Z,27.8
2023-03-02T09:43:29.839Z,27.6
2023-03-02T09:44:30.848Z,27
2023-03-02T09:45:32.352Z,26.6
2023-03-02T09:46:33.784Z,26.5
2023-03-02T09:47:37.418Z,26.2
2023-03-02T09:48:38.775Z,25.7
2023-03-02T09:49:39.677Z,25.7
2023-03-02T09:50:40.759Z,25.9
2023-03-02T09:51:41.739Z,25.9
2023-03-02T09:52:42.697Z,25.7
2023-03-02T09:53:43.607Z,25.7
2023-03-02T09:54:44.716Z,25.4
2023-03-02T09:55:45.665Z,25.3
2023-03-02T09:56:46.638Z,25.6
2023-03-02T09:57:47.884Z,25.5
2023-03-02T09:58:48.718Z,24.9
2023-03-02T09:59:49.748Z,24.7
2023-03-02T10:00:50.805Z,25
2023-03-02T10:01:51.716Z,24.8
2023-03-02T10:02:52.910Z,24.1
2023-03-02T10:03:53.863Z,24.2
2023-03-02T10:04:54.903Z,23.9
2023-03-02T10:05:55.717Z,23.3
2023-03-02T10:06:56.703Z,23.2
2023-03-02T10:07:59.343Z,23.2
2023-03-02T10:08:58.824Z,23.3
2023-03-02T10:09:59.743Z,23.1
2023-03-02T10:11:00.775Z,23.2
2023-03-02T10:12:01.799Z,22.9
2023-03-02T10:13:02.779Z,23.5
2023-03-02T10:14:03.734Z,23.6
2023-03-02T10:15:04.793Z,24
2023-03-02T10:16:05.733Z,23.8
2023-03-02T10:17:06.815Z,23.6
2023-03-02T10:18:07.771Z,23.1
2023-03-02T10:19:08.816Z,23.5
2023-03-02T10:20:09.777Z,23.1
2023-03-02T10:21:10.833Z,23.1
2023-03-02T10:22:11.796Z,22.6
2023-03-02T10:23:12.717Z,22.7
2023-03-02T10:24:13.801Z,22.3
2023-03-02T10:25:14.838Z,21.9
2023-03-02T10:26:15.787Z,21.7
2023-03-02T10:27:16.806Z,21.6
2023-03-02T10:28:17.766Z,21.7
2023-03-02T10:29:18.757Z,21.6
2023-03-02T10:30:19.796Z,21.8
2023-03-02T10:31:20.935Z,21.8
2023-03-02T10:32:21.796Z,21.5
2023-03-02T10:33:22.733Z,20.9
2023-03-02T10:34:23.793Z,21.1
2023-03-02T10:35:24.813Z,21
2023-03-02T10:36:25.774Z,20.9
2023-03-02T10:37:26.752Z,21.5
2023-03-02T10:38:27.840Z,21.4
2023-03-02T10:39:28.792Z,21.5
2023-03-02T10:40:29.792Z,21.6
2023-03-02T10:41:30.850Z,21.8
2023-03-02T10:42:32.372Z,22.3
2023-03-02T10:43:33.773Z,21.9
2023-03-02T10:44:34.698Z,22.2
2023-03-02T10:45:35.813Z,22.4
2023-03-02T10:46:36.989Z,22.8
2023-03-02T10:47:37.813Z,23
2023-03-02T10:48:40.841Z,22.9
2023-03-02T10:49:39.793Z,22.4
2023-03-02T10:50:40.734Z,21.9
2023-03-02T10:51:41.692Z,22
2023-03-02T10:52:51.249Z,21.7
2023-03-02T10:53:43.812Z,21.3
2023-03-02T10:54:44.754Z,21.1
2023-03-02T10:55:45.767Z,21.5
2023-03-02T10:56:46.781Z,21.8
2023-03-02T10:57:47.833Z,21.7
2023-03-02T10:58:48.772Z,21.4
2023-03-02T10:59:49.842Z,20.9
2023-03-02T11:00:50.823Z,20.9
2023-03-02T11:01:51.776Z,20.1
2023-03-02T11:02:52.817Z,20.1
2023-03-02T11:03:53.828Z,20.7
2023-03-02T11:04:57.295Z,20.4
2023-03-02T11:05:55.757Z,20.4
2023-03-02T11:06:56.782Z,20.4
2023-03-02T11:07:57.719Z,20.6
2023-03-02T11:09:01.727Z,20.8
2023-03-02T11:10:02.757Z,20.8
2023-03-02T11:11:03.794Z,20.8
2023-03-02T11:12:04.937Z,20.5
2023-03-02T11:13:05.776Z,20.5
2023-03-02T11:14:06.737Z,20.5
2023-03-02T11:15:07.814Z,20.3
2023-03-02T11:16:08.869Z,20.3
2023-03-02T11:17:09.693Z,20.4
2023-03-02T11:18:10.726Z,20.7
2023-03-02T11:19:11.836Z,20.7
2023-03-02T11:20:12.897Z,21
2023-03-02T11:21:13.874Z,20.6
2023-03-02T11:22:14.695Z,20.4
2023-03-02T11:23:15.735Z,21.1
2023-03-02T11:24:16.873Z,21.1
2023-03-02T11:25:17.950Z,21.3
2023-03-02T11:26:18.814Z,21.4
2023-03-02T11:27:19.818Z,20.9
2023-03-02T11:28:20.854Z,21.4
2023-03-02T11:29:22.786Z,21.5
2023-03-02T11:30:22.815Z,21.4
2023-03-02T11:31:23.989Z,21.2
2023-03-02T11:32:24.810Z,21.4
2023-03-02T11:33:25.823Z,21.6
2023-03-02T11:34:26.777Z,21.7
2023-03-02T11:35:28.030Z,21
2023-03-02T11:36:28.794Z,21.1
2023-03-02T11:37:29.777Z,21.1
2023-03-02T11:38:30.722Z,20.8
2023-03-02T11:39:31.795Z,20.5
2023-03-02T11:40:32.879Z,20.3
2023-03-02T11:41:34.157Z,19.8
2023-03-02T11:42:34.870Z,19.3
2023-03-02T11:43:35.775Z,19.6
2023-03-02T11:44:36.814Z,19.4
2023-03-02T11:45:37.795Z,19.2
2023-03-02T11:46:38.936Z,19
2023-03-02T11:47:39.838Z,18.9
2023-03-02T11:48:40.808Z,19
2023-03-02T11:49:41.789Z,18.9
2023-03-02T11:50:42.796Z,18.7
2023-03-02T11:51:47.371Z,18.7
2023-03-02T11:52:44.866Z,19
2023-03-02T11:53:45.839Z,19.1
2023-03-02T11:54:46.796Z,19.3
2023-03-02T11:55:47.838Z,19.2
2023-03-02T11:56:48.771Z,19.4
2023-03-02T11:57:49.759Z,19.5
2023-03-02T11:58:50.856Z,19.4
2023-03-02T11:59:51.841Z,19.5
2023-03-02T12:00:52.882Z,19.7
2023-03-02T12:01:53.974Z,19.5
2023-03-02T12:02:54.756Z,19.4
2023-03-02T12:03:55.775Z,19.5
2023-03-02T12:04:56.798Z,19.7
2023-03-02T12:05:57.815Z,19.7
2023-03-02T12:06:58.883Z,19.4
2023-03-02T12:07:59.836Z,19.5
2023-03-02T12:09:00.878Z,19.8
2023-03-02T12:10:01.827Z,20.1
2023-03-02T12:11:02.765Z,20.4
2023-03-02T12:12:04.882Z,20.7
2023-03-02T12:13:04.879Z,20.5
2023-03-02T12:14:05.880Z,20
2023-03-02T12:15:07.038Z,19.7
2023-03-02T12:16:07.915Z,19.9
2023-03-02T12:17:08.836Z,19.3
2023-03-02T12:18:09.912Z,19.1
2023-03-02T12:19:10.874Z,19.4
2023-03-02T12:20:11.819Z,19.7
2023-03-02T12:21:12.755Z,19.5
2023-03-02T12:22:13.788Z,19.2
2023-03-02T12:23:14.858Z,19.3
2023-03-02T12:24:15.838Z,19.5
2023-03-02T12:25:16.832Z,19.5
2023-03-02T12:26:17.803Z,19.9
2023-03-02T12:27:18.874Z,19.9
2023-03-02T12:28:19.861Z,20.3
2023-03-02T12:29:20.816Z,20.5
2023-03-02T12:30:22.072Z,20.6
2023-03-02T12:31:22.909Z,20.4
2023-03-02T12:32:23.856Z,20.7
2023-03-02T12:33:24.864Z,21.1
2023-03-02T12:34:25.846Z,21.3
2023-03-02T12:35:26.957Z,21
2023-03-02T12:36:27.757Z,20.7
2023-03-02T12:37:28.880Z,20.4
2023-03-02T12:38:29.841Z,20.7
2023-03-02T12:39:30.785Z,20.6
2023-03-02T12:40:31.815Z,20.3
2023-03-02T12:41:32.819Z,19.7
2023-03-02T12:42:34.039Z,19.2
2023-03-02T12:43:34.901Z,18.9
2023-03-02T12:44:35.765Z,18.8
2023-03-02T12:45:36.902Z,18.7
2023-03-02T12:46:37.901Z,18.9
2023-03-02T12:47:39.069Z,18.8
2023-03-02T12:48:40.145Z,18.9
2023-03-02T12:49:40.925Z,19.3
2023-03-02T12:50:41.838Z,19.3
2023-03-02T12:51:42.901Z,19
2023-03-02T12:52:43.917Z,18.7
2023-03-02T12:53:44.860Z,18.6
2023-03-02T12:54:45.840Z,18.5
2023-03-02T12:55:46.882Z,18.7
2023-03-02T12:56:47.800Z,18.8
2023-03-02T12:57:48.911Z,18.5
2023-03-02T12:58:49.914Z,18.3
2023-03-02T12:59:50.853Z,18.3
2023-03-02T13:00:51.949Z,18.6
2023-03-02T13:01:52.799Z,18.3
2023-03-02T13:02:53.962Z,18.3
2023-03-02T13:03:54.939Z,18.1
2023-03-02T13:04:55.856Z,17.6
2023-03-02T13:05:56.860Z,17.5
2023-03-02T13:06:57.794Z,17.8
2023-03-02T13:07:58.860Z,17.9
2023-03-02T13:08:59.925Z,17.9
2023-03-02T13:10:00.901Z,18.6
2023-03-02T13:11:01.872Z,19.1
2023-03-02T13:12:02.899Z,19.5
2023-03-02T13:13:03.808Z,19.7
2023-03-02T13:14:04.860Z,20.1
2023-03-02T13:15:05.816Z,20.4
2023-03-02T13:16:06.963Z,20.5
2023-03-02T13:17:07.932Z,20.5
2023-03-02T13:18:10.082Z,20.5
2023-03-02T13:19:09.893Z,20.1
2023-03-02T13:20:10.895Z,19.9
2023-03-02T13:21:11.936Z,19.7
2023-03-02T13:22:12.899Z,20.1
2023-03-02T13:23:13.926Z,20.1
2023-03-02T13:24:14.978Z,19.9
2023-03-02T13:25:15.919Z,19.7
2023-03-02T13:26:16.865Z,19.5
2023-03-02T13:27:18.058Z,19.7
2023-03-02T13:28:18.806Z,19.3
2023-03-02T13:29:20.213Z,19.3
2023-03-02T13:30:20.880Z,19.8
2023-03-02T13:31:25.065Z,19.8
2023-03-02T13:32:28.149Z,19.6
2023-03-02T13:33:28.870Z,19.7
2023-03-02T13:34:29.974Z,19.7
2023-03-02T13:35:30.830Z,19.8
2023-03-02T13:36:32.364Z,19.9
2023-03-02T13:37:35.056Z,20.2
2023-03-02T13:38:36.918Z,19.9
2023-03-02T13:39:37.895Z,20.1
2023-03-02T13:40:38.917Z,20.5
2023-03-02T13:41:39.854Z,20.6